Aérodrome :
LOGIN :

S'inscrire | Disclaimer

   EN    FR    IT 

 










Légende :    VFR   VFR Marginal   IFR   IFR Intensif   IFR Très Intensif
Visi : 
Plafond : 
>= 8 km
>= 3000ft
5 à 8 km
1000 à 3000 ft
1500m à 5 km
500 à 1000 ft
800 à 1500m
200 à 500 ft
< 800m
< 200 ft
Symboles :   Orages  Brouillard  Fortes neiges  Fortes précipitations  Vent > 20 kt
SIGMETs :   Divers  Orages  Givrage  Turbulence  Onde Orograph.  Cendres Volcan.






- Altitude de l'aérodrome : 600 ft
- Code IATA : VIE


LOWW - Vienna Schwechat

DERNIER METAR :
  • 200620Z 32008KT 9999 FEW017 BKN020 02/01 Q1043 R88/29//95 NOSIG

METARs EXPIRÉS :
  • 200550Z 32009KT 9999 FEW007 OVC017 02/01 Q1042 R88/29//95 NOSIG
  • 200520Z 32008KT 9999 FEW006 OVC017 02/01 Q1042 R88/29//95 NOSIG
  • 200450Z 32009KT 9999 FEW006 BKN015 02/01 Q1041 R88/29//95 NOSIG
  • 200420Z 32009KT 9999 -RA FEW006 BKN015 02/01 Q1041 R88/29//95 TEMPO BKN012
  • 200350Z 32009KT 9999 -RA FEW005 SCT011 BKN015 02/01 Q1041 R88/29//95 TEMPO BKN012

TAF TAF LOWW
Valide du 20 à 06h jusqu'au 21 à 12h UTC


200515Z 2006/2112 33010KT 9999 SCT014 BKN018 TX03/2013Z TNM02/2107Z
TEMPO 2006/2008 -RASN BKN014
BECMG 2010/2012 36006KT BKN030
BECMG 2017/2019 VRB02KT SCT030
BECMG 2022/2024 1200 FZBCFG SCT001
BECMG 2102/2105 0400 FZFG VV001
BECMG 2109/2112 10006KT 2500 BR BKN004



MET'MAP, la Météo Aéronautique d'un coup d'oeil ! - Copyright ORBIFLY Décembre 2007 - Disclaimer

ORBIFLY MET'MAP TEAM :

Programmation & Développement : Alexandra Zaïnal
Sur une idée originale de : Baudouin d'Aumeries
Assistance à la programmation : Marc-Olivier Méhu
Soutien technique & logistique : Manuel Goepfert

Contact : metmap@orbifly.com




SOURCES & CREDITS :

   NOAA